sensor_id;sensor_type;location;lat;lon;timestamp;P1;durP1;ratioP1;P2;durP2;ratioP2
10910;SDS011;5508;49.150;11.030;2023-07-29T00:00:46;5.07;;;3.57;;
10910;SDS011;5508;49.150;11.030;2023-07-29T00:03:47;5.17;;;3.60;;
10910;SDS011;5508;49.150;11.030;2023-07-29T00:06:47;4.23;;;3.43;;
10910;SDS011;5508;49.150;11.030;2023-07-29T00:09:48;6.97;;;3.27;;
10910;SDS011;5508;49.150;11.030;2023-07-29T00:12:48;4.77;;;3.60;;
10910;SDS011;5508;49.150;11.030;2023-07-29T00:15:49;3.50;;;3.13;;
10910;SDS011;5508;49.150;11.030;2023-07-29T00:18:49;4.53;;;3.17;;
10910;SDS011;5508;49.150;11.030;2023-07-29T00:21:50;3.50;;;3.20;;
10910;SDS011;5508;49.150;11.030;2023-07-29T00:24:54;3.73;;;3.43;;
10910;SDS011;5508;49.150;11.030;2023-07-29T00:27:55;4.43;;;3.47;;
10910;SDS011;5508;49.150;11.030;2023-07-29T00:30:56;5.33;;;3.67;;
10910;SDS011;5508;49.150;11.030;2023-07-29T00:33:57;5.13;;;3.30;;
10910;SDS011;5508;49.150;11.030;2023-07-29T00:36:58;3.80;;;3.33;;
10910;SDS011;5508;49.150;11.030;2023-07-29T00:39:58;4.17;;;3.40;;
10910;SDS011;5508;49.150;11.030;2023-07-29T00:42:59;5.03;;;3.40;;
10910;SDS011;5508;49.150;11.030;2023-07-29T00:46:00;4.83;;;3.10;;
10910;SDS011;5508;49.150;11.030;2023-07-29T00:49:00;3.90;;;3.43;;
10910;SDS011;5508;49.150;11.030;2023-07-29T00:52:01;4.80;;;4.23;;
10910;SDS011;5508;49.150;11.030;2023-07-29T00:55:02;5.87;;;4.13;;
10910;SDS011;5508;49.150;11.030;2023-07-29T00:58:04;3.97;;;3.63;;
10910;SDS011;5508;49.150;11.030;2023-07-29T01:01:05;4.80;;;4.30;;
10910;SDS011;5508;49.150;11.030;2023-07-29T01:04:05;6.00;;;4.30;;
10910;SDS011;5508;49.150;11.030;2023-07-29T01:10:30;6.80;;;5.10;;
10910;SDS011;5508;49.150;11.030;2023-07-29T01:13:44;6.27;;;5.20;;
10910;SDS011;5508;49.150;11.030;2023-07-29T01:16:52;8.27;;;5.20;;
10910;SDS011;5508;49.150;11.030;2023-07-29T01:19:59;7.07;;;6.20;;
10910;SDS011;5508;49.150;11.030;2023-07-29T01:23:05;10.63;;;5.93;;
10910;SDS011;5508;49.150;11.030;2023-07-29T01:26:06;7.80;;;6.23;;
10910;SDS011;5508;49.150;11.030;2023-07-29T01:29:06;6.90;;;6.17;;
10910;SDS011;5508;49.150;11.030;2023-07-29T01:32:10;7.77;;;6.97;;
10910;SDS011;5508;49.150;11.030;2023-07-29T01:38:33;7.43;;;6.73;;
10910;SDS011;5508;49.150;11.030;2023-07-29T01:41:36;7.97;;;7.17;;
10910;SDS011;5508;49.150;11.030;2023-07-29T01:44:37;8.07;;;7.07;;
10910;SDS011;5508;49.150;11.030;2023-07-29T01:47:38;10.87;;;7.97;;
10910;SDS011;5508;49.150;11.030;2023-07-29T01:50:41;9.00;;;7.37;;
10910;SDS011;5508;49.150;11.030;2023-07-29T01:53:41;10.43;;;7.57;;
10910;SDS011;5508;49.150;11.030;2023-07-29T01:56:42;12.07;;;7.93;;
10910;SDS011;5508;49.150;11.030;2023-07-29T01:59:43;10.73;;;7.80;;
10910;SDS011;5508;49.150;11.030;2023-07-29T02:02:43;9.80;;;6.80;;
10910;SDS011;5508;49.150;11.030;2023-07-29T02:05:44;7.20;;;6.50;;
10910;SDS011;5508;49.150;11.030;2023-07-29T02:08:44;6.83;;;6.23;;
10910;SDS011;5508;49.150;11.030;2023-07-29T02:11:45;8.33;;;5.97;;
10910;SDS011;5508;49.150;11.030;2023-07-29T02:14:46;5.03;;;4.60;;
10910;SDS011;5508;49.150;11.030;2023-07-29T02:17:46;6.17;;;5.47;;
10910;SDS011;5508;49.150;11.030;2023-07-29T02:20:47;6.47;;;5.23;;
10910;SDS011;5508;49.150;11.030;2023-07-29T02:23:49;6.80;;;4.90;;
10910;SDS011;5508;49.150;11.030;2023-07-29T02:26:49;8.67;;;4.90;;
10910;SDS011;5508;49.150;11.030;2023-07-29T02:29:50;6.67;;;4.90;;
10910;SDS011;5508;49.150;11.030;2023-07-29T02:32:51;5.63;;;4.77;;
10910;SDS011;5508;49.150;11.030;2023-07-29T02:35:51;6.20;;;5.10;;
10910;SDS011;5508;49.150;11.030;2023-07-29T02:38:52;8.67;;;5.07;;
10910;SDS011;5508;49.150;11.030;2023-07-29T02:41:52;5.80;;;5.20;;
10910;SDS011;5508;49.150;11.030;2023-07-29T02:44:55;7.13;;;5.63;;
10910;SDS011;5508;49.150;11.030;2023-07-29T02:47:56;5.40;;;4.77;;
10910;SDS011;5508;49.150;11.030;2023-07-29T02:50:56;7.00;;;4.47;;
10910;SDS011;5508;49.150;11.030;2023-07-29T02:53:57;6.10;;;4.87;;
10910;SDS011;5508;49.150;11.030;2023-07-29T02:56:57;5.50;;;4.90;;
10910;SDS011;5508;49.150;11.030;2023-07-29T02:59:58;6.63;;;4.40;;
10910;SDS011;5508;49.150;11.030;2023-07-29T03:02:59;6.20;;;4.80;;
10910;SDS011;5508;49.150;11.030;2023-07-29T03:06:06;5.70;;;4.20;;
10910;SDS011;5508;49.150;11.030;2023-07-29T03:09:08;4.33;;;3.93;;
10910;SDS011;5508;49.150;11.030;2023-07-29T03:12:09;7.93;;;4.13;;
10910;SDS011;5508;49.150;11.030;2023-07-29T03:15:11;4.70;;;4.07;;
10910;SDS011;5508;49.150;11.030;2023-07-29T03:18:11;6.90;;;3.67;;
10910;SDS011;5508;49.150;11.030;2023-07-29T03:21:12;4.50;;;4.00;;
10910;SDS011;5508;49.150;11.030;2023-07-29T03:24:13;5.57;;;3.50;;
10910;SDS011;5508;49.150;11.030;2023-07-29T03:27:13;5.30;;;4.10;;
10910;SDS011;5508;49.150;11.030;2023-07-29T03:30:18;4.97;;;3.63;;
10910;SDS011;5508;49.150;11.030;2023-07-29T03:33:19;5.40;;;3.50;;
10910;SDS011;5508;49.150;11.030;2023-07-29T03:36:21;5.97;;;3.97;;
10910;SDS011;5508;49.150;11.030;2023-07-29T03:39:21;4.47;;;3.57;;
10910;SDS011;5508;49.150;11.030;2023-07-29T03:42:22;4.53;;;3.57;;
10910;SDS011;5508;49.150;11.030;2023-07-29T03:45:23;4.47;;;3.80;;
10910;SDS011;5508;49.150;11.030;2023-07-29T03:48:23;5.70;;;3.10;;
10910;SDS011;5508;49.150;11.030;2023-07-29T03:51:24;3.33;;;3.00;;
10910;SDS011;5508;49.150;11.030;2023-07-29T03:54:24;3.73;;;3.00;;
10910;SDS011;5508;49.150;11.030;2023-07-29T03:57:25;5.30;;;3.33;;
10910;SDS011;5508;49.150;11.030;2023-07-29T04:00:26;3.13;;;2.83;;
10910;SDS011;5508;49.150;11.030;2023-07-29T04:03:27;4.33;;;3.17;;
10910;SDS011;5508;49.150;11.030;2023-07-29T04:06:28;5.07;;;2.83;;
10910;SDS011;5508;49.150;11.030;2023-07-29T04:09:28;2.97;;;2.77;;
10910;SDS011;5508;49.150;11.030;2023-07-29T04:12:29;4.97;;;3.00;;
10910;SDS011;5508;49.150;11.030;2023-07-29T04:15:30;3.77;;;3.00;;
10910;SDS011;5508;49.150;11.030;2023-07-29T04:18:31;4.00;;;2.70;;
10910;SDS011;5508;49.150;11.030;2023-07-29T04:21:32;3.50;;;2.77;;
10910;SDS011;5508;49.150;11.030;2023-07-29T04:24:32;2.70;;;2.50;;
10910;SDS011;5508;49.150;11.030;2023-07-29T04:27:33;4.47;;;2.87;;
10910;SDS011;5508;49.150;11.030;2023-07-29T04:30:33;2.90;;;2.40;;
10910;SDS011;5508;49.150;11.030;2023-07-29T04:33:34;3.17;;;2.30;;
10910;SDS011;5508;49.150;11.030;2023-07-29T04:36:34;3.30;;;2.83;;
10910;SDS011;5508;49.150;11.030;2023-07-29T04:39:35;3.40;;;2.50;;
10910;SDS011;5508;49.150;11.030;2023-07-29T04:42:36;6.93;;;2.87;;
10910;SDS011;5508;49.150;11.030;2023-07-29T04:45:41;4.83;;;2.87;;
10910;SDS011;5508;49.150;11.030;2023-07-29T04:48:43;3.43;;;3.00;;
10910;SDS011;5508;49.150;11.030;2023-07-29T04:51:43;5.17;;;3.23;;
10910;SDS011;5508;49.150;11.030;2023-07-29T04:54:44;3.43;;;3.00;;
10910;SDS011;5508;49.150;11.030;2023-07-29T04:57:45;4.87;;;3.47;;
10910;SDS011;5508;49.150;11.030;2023-07-29T05:00:48;4.77;;;3.57;;
10910;SDS011;5508;49.150;11.030;2023-07-29T05:03:49;4.63;;;2.67;;
10910;SDS011;5508;49.150;11.030;2023-07-29T05:06:49;6.17;;;3.63;;
10910;SDS011;5508;49.150;11.030;2023-07-29T05:09:50;3.93;;;2.90;;
10910;SDS011;5508;49.150;11.030;2023-07-29T05:12:51;3.77;;;2.97;;
10910;SDS011;5508;49.150;11.030;2023-07-29T05:15:51;5.30;;;3.10;;
10910;SDS011;5508;49.150;11.030;2023-07-29T05:18:52;3.93;;;2.90;;
10910;SDS011;5508;49.150;11.030;2023-07-29T05:21:53;5.17;;;4.03;;
10910;SDS011;5508;49.150;11.030;2023-07-29T05:24:53;4.17;;;3.67;;
10910;SDS011;5508;49.150;11.030;2023-07-29T05:27:54;4.53;;;3.90;;
10910;SDS011;5508;49.150;11.030;2023-07-29T05:30:54;6.63;;;3.97;;
10910;SDS011;5508;49.150;11.030;2023-07-29T05:33:55;4.80;;;3.67;;
10910;SDS011;5508;49.150;11.030;2023-07-29T05:36:55;6.63;;;4.13;;
10910;SDS011;5508;49.150;11.030;2023-07-29T05:39:56;3.80;;;3.37;;
10910;SDS011;5508;49.150;11.030;2023-07-29T05:42:57;4.37;;;3.90;;
10910;SDS011;5508;49.150;11.030;2023-07-29T05:45:57;6.23;;;3.90;;
10910;SDS011;5508;49.150;11.030;2023-07-29T05:48:58;5.73;;;4.77;;
10910;SDS011;5508;49.150;11.030;2023-07-29T05:51:58;5.43;;;4.60;;
10910;SDS011;5508;49.150;11.030;2023-07-29T05:54:59;5.80;;;5.20;;
10910;SDS011;5508;49.150;11.030;2023-07-29T05:58:00;5.17;;;4.50;;
10910;SDS011;5508;49.150;11.030;2023-07-29T06:01:01;4.87;;;4.10;;
10910;SDS011;5508;49.150;11.030;2023-07-29T06:04:01;5.37;;;4.40;;
10910;SDS011;5508;49.150;11.030;2023-07-29T06:07:02;6.53;;;4.70;;
10910;SDS011;5508;49.150;11.030;2023-07-29T06:10:03;7.43;;;4.43;;
10910;SDS011;5508;49.150;11.030;2023-07-29T06:13:03;6.87;;;4.87;;
10910;SDS011;5508;49.150;11.030;2023-07-29T06:16:04;4.87;;;4.20;;
10910;SDS011;5508;49.150;11.030;2023-07-29T06:19:05;6.07;;;4.37;;
10910;SDS011;5508;49.150;11.030;2023-07-29T06:22:05;7.17;;;4.83;;
10910;SDS011;5508;49.150;11.030;2023-07-29T06:25:06;6.90;;;4.67;;
10910;SDS011;5508;49.150;11.030;2023-07-29T06:28:08;5.43;;;4.80;;
10910;SDS011;5508;49.150;11.030;2023-07-29T06:31:09;7.20;;;5.53;;
10910;SDS011;5508;49.150;11.030;2023-07-29T06:34:10;8.83;;;5.03;;
10910;SDS011;5508;49.150;11.030;2023-07-29T06:37:10;5.30;;;4.70;;
10910;SDS011;5508;49.150;11.030;2023-07-29T06:40:11;8.10;;;5.17;;
10910;SDS011;5508;49.150;11.030;2023-07-29T06:43:12;6.77;;;4.73;;
10910;SDS011;5508;49.150;11.030;2023-07-29T06:46:12;6.07;;;4.97;;
10910;SDS011;5508;49.150;11.030;2023-07-29T06:49:13;6.30;;;5.20;;
10910;SDS011;5508;49.150;11.030;2023-07-29T06:52:13;5.77;;;5.17;;
10910;SDS011;5508;49.150;11.030;2023-07-29T06:55:14;12.40;;;5.00;;
10910;SDS011;5508;49.150;11.030;2023-07-29T06:58:15;5.80;;;5.03;;
10910;SDS011;5508;49.150;11.030;2023-07-29T07:01:15;6.27;;;5.20;;
10910;SDS011;5508;49.150;11.030;2023-07-29T07:04:16;8.40;;;5.60;;
10910;SDS011;5508;49.150;11.030;2023-07-29T07:07:16;5.53;;;5.03;;
10910;SDS011;5508;49.150;11.030;2023-07-29T07:10:17;6.47;;;5.00;;
10910;SDS011;5508;49.150;11.030;2023-07-29T07:13:18;5.90;;;5.30;;
10910;SDS011;5508;49.150;11.030;2023-07-29T07:16:19;5.10;;;4.60;;
10910;SDS011;5508;49.150;11.030;2023-07-29T07:19:19;6.67;;;4.67;;
10910;SDS011;5508;49.150;11.030;2023-07-29T07:22:20;5.30;;;4.83;;
10910;SDS011;5508;49.150;11.030;2023-07-29T07:25:20;5.13;;;4.30;;
10910;SDS011;5508;49.150;11.030;2023-07-29T07:28:21;7.13;;;4.27;;
10910;SDS011;5508;49.150;11.030;2023-07-29T07:31:22;6.70;;;4.60;;
10910;SDS011;5508;49.150;11.030;2023-07-29T07:34:22;5.97;;;4.93;;
10910;SDS011;5508;49.150;11.030;2023-07-29T07:37:23;3.97;;;3.60;;
10910;SDS011;5508;49.150;11.030;2023-07-29T07:40:23;4.97;;;4.17;;
10910;SDS011;5508;49.150;11.030;2023-07-29T07:43:24;5.13;;;4.23;;
10910;SDS011;5508;49.150;11.030;2023-07-29T07:46:25;4.67;;;4.00;;
10910;SDS011;5508;49.150;11.030;2023-07-29T07:49:25;4.60;;;4.18;;
10910;SDS011;5508;49.150;11.030;2023-07-29T07:52:26;5.85;;;3.88;;
10910;SDS011;5508;49.150;11.030;2023-07-29T07:55:27;4.47;;;3.97;;
10910;SDS011;5508;49.150;11.030;2023-07-29T07:58:28;4.80;;;4.00;;
10910;SDS011;5508;49.150;11.030;2023-07-29T08:01:34;4.30;;;3.60;;
10910;SDS011;5508;49.150;11.030;2023-07-29T08:04:36;5.80;;;3.90;;
10910;SDS011;5508;49.150;11.030;2023-07-29T08:07:36;6.00;;;3.38;;
10910;SDS011;5508;49.150;11.030;2023-07-29T08:10:37;3.97;;;3.40;;
10910;SDS011;5508;49.150;11.030;2023-07-29T08:13:37;4.17;;;3.00;;
10910;SDS011;5508;49.150;11.030;2023-07-29T08:16:38;4.93;;;3.45;;
10910;SDS011;5508;49.150;11.030;2023-07-29T08:19:38;11.00;;;8.05;;
10910;SDS011;5508;49.150;11.030;2023-07-29T08:22:39;10.45;;;9.10;;
10910;SDS011;5508;49.150;11.030;2023-07-29T08:25:39;9.48;;;8.13;;
10910;SDS011;5508;49.150;11.030;2023-07-29T08:28:40;6.18;;;5.20;;
10910;SDS011;5508;49.150;11.030;2023-07-29T08:31:41;4.95;;;4.20;;
10910;SDS011;5508;49.150;11.030;2023-07-29T08:34:41;4.22;;;3.20;;
10910;SDS011;5508;49.150;11.030;2023-07-29T08:37:42;4.55;;;4.15;;
10910;SDS011;5508;49.150;11.030;2023-07-29T08:40:45;3.15;;;2.63;;
10910;SDS011;5508;49.150;11.030;2023-07-29T08:44:23;2.67;;;2.35;;
10910;SDS011;5508;49.150;11.030;2023-07-29T08:47:26;3.15;;;2.30;;
10910;SDS011;5508;49.150;11.030;2023-07-29T08:50:27;2.88;;;2.45;;
10910;SDS011;5508;49.150;11.030;2023-07-29T08:53:29;3.40;;;2.60;;
10910;SDS011;5508;49.150;11.030;2023-07-29T08:56:31;3.63;;;2.25;;
10910;SDS011;5508;49.150;11.030;2023-07-29T08:59:32;2.95;;;2.25;;
10910;SDS011;5508;49.150;11.030;2023-07-29T09:02:33;2.90;;;1.87;;
10910;SDS011;5508;49.150;11.030;2023-07-29T09:05:34;3.35;;;2.40;;
10910;SDS011;5508;49.150;11.030;2023-07-29T09:08:34;3.10;;;2.50;;
10910;SDS011;5508;49.150;11.030;2023-07-29T09:11:35;7.72;;;2.90;;
10910;SDS011;5508;49.150;11.030;2023-07-29T09:14:36;3.27;;;2.23;;
10910;SDS011;5508;49.150;11.030;2023-07-29T09:17:37;3.40;;;3.03;;
10910;SDS011;5508;49.150;11.030;2023-07-29T09:20:37;3.40;;;2.63;;
10910;SDS011;5508;49.150;11.030;2023-07-29T09:23:39;8.63;;;2.70;;
10910;SDS011;5508;49.150;11.030;2023-07-29T09:26:41;3.13;;;2.63;;
10910;SDS011;5508;49.150;11.030;2023-07-29T09:29:49;4.43;;;3.10;;
10910;SDS011;5508;49.150;11.030;2023-07-29T09:32:56;3.53;;;2.97;;
10910;SDS011;5508;49.150;11.030;2023-07-29T09:35:58;4.30;;;3.10;;
10910;SDS011;5508;49.150;11.030;2023-07-29T09:38:58;5.60;;;3.10;;
10910;SDS011;5508;49.150;11.030;2023-07-29T09:41:59;13.20;;;10.70;;
10910;SDS011;5508;49.150;11.030;2023-07-29T09:45:00;12.53;;;11.23;;
10910;SDS011;5508;49.150;11.030;2023-07-29T09:48:00;5.83;;;4.90;;
10910;SDS011;5508;49.150;11.030;2023-07-29T09:51:10;5.30;;;4.00;;
10910;SDS011;5508;49.150;11.030;2023-07-29T09:54:11;4.97;;;3.90;;
10910;SDS011;5508;49.150;11.030;2023-07-29T09:57:13;4.00;;;3.57;;
10910;SDS011;5508;49.150;11.030;2023-07-29T10:00:15;3.50;;;3.20;;
10910;SDS011;5508;49.150;11.030;2023-07-29T10:03:16;3.23;;;2.93;;
10910;SDS011;5508;49.150;11.030;2023-07-29T10:06:19;3.75;;;3.17;;
10910;SDS011;5508;49.150;11.030;2023-07-29T10:09:20;3.40;;;2.97;;
10910;SDS011;5508;49.150;11.030;2023-07-29T10:12:21;5.10;;;3.20;;
10910;SDS011;5508;49.150;11.030;2023-07-29T10:15:22;4.38;;;2.67;;
10910;SDS011;5508;49.150;11.030;2023-07-29T10:18:24;4.85;;;3.22;;
10910;SDS011;5508;49.150;11.030;2023-07-29T10:21:25;4.35;;;3.10;;
10910;SDS011;5508;49.150;11.030;2023-07-29T10:24:28;3.35;;;2.65;;
10910;SDS011;5508;49.150;11.030;2023-07-29T10:27:31;2.85;;;2.33;;
10910;SDS011;5508;49.150;11.030;2023-07-29T10:30:43;2.75;;;2.50;;
10910;SDS011;5508;49.150;11.030;2023-07-29T10:33:44;2.00;;;1.80;;
10910;SDS011;5508;49.150;11.030;2023-07-29T10:36:45;2.03;;;1.83;;
10910;SDS011;5508;49.150;11.030;2023-07-29T10:39:56;4.95;;;2.03;;
10910;SDS011;5508;49.150;11.030;2023-07-29T10:43:01;1.65;;;1.48;;
10910;SDS011;5508;49.150;11.030;2023-07-29T10:46:21;1.33;;;1.20;;
10910;SDS011;5508;49.150;11.030;2023-07-29T10:49:23;1.73;;;1.17;;
10910;SDS011;5508;49.150;11.030;2023-07-29T10:52:28;3.58;;;1.40;;
10910;SDS011;5508;49.150;11.030;2023-07-29T10:55:35;1.67;;;1.58;;
10910;SDS011;5508;49.150;11.030;2023-07-29T10:58:37;1.70;;;1.33;;
10910;SDS011;5508;49.150;11.030;2023-07-29T11:01:40;3.10;;;1.40;;
10910;SDS011;5508;49.150;11.030;2023-07-29T11:04:47;2.60;;;1.30;;
10910;SDS011;5508;49.150;11.030;2023-07-29T11:07:49;1.55;;;1.02;;
10910;SDS011;5508;49.150;11.030;2023-07-29T11:14:00;2.30;;;0.90;;
10910;SDS011;5508;49.150;11.030;2023-07-29T11:17:01;1.58;;;1.20;;
10910;SDS011;5508;49.150;11.030;2023-07-29T11:20:04;2.67;;;1.10;;
10910;SDS011;5508;49.150;11.030;2023-07-29T11:23:05;1.20;;;1.10;;
10910;SDS011;5508;49.150;11.030;2023-07-29T11:26:06;2.17;;;1.20;;
10910;SDS011;5508;49.150;11.030;2023-07-29T11:29:07;2.33;;;1.10;;
10910;SDS011;5508;49.150;11.030;2023-07-29T11:32:09;2.67;;;1.02;;
10910;SDS011;5508;49.150;11.030;2023-07-29T11:35:11;0.80;;;0.80;;
10910;SDS011;5508;49.150;11.030;2023-07-29T11:38:15;1.10;;;1.00;;
10910;SDS011;5508;49.150;11.030;2023-07-29T11:41:19;1.85;;;1.10;;
10910;SDS011;5508;49.150;11.030;2023-07-29T11:44:21;1.40;;;1.27;;
10910;SDS011;5508;49.150;11.030;2023-07-29T11:47:21;1.33;;;0.90;;
10910;SDS011;5508;49.150;11.030;2023-07-29T11:50:22;3.20;;;1.40;;
10910;SDS011;5508;49.150;11.030;2023-07-29T11:53:25;1.73;;;1.05;;
10910;SDS011;5508;49.150;11.030;2023-07-29T11:56:27;2.20;;;1.30;;
10910;SDS011;5508;49.150;11.030;2023-07-29T11:59:30;1.52;;;1.42;;
10910;SDS011;5508;49.150;11.030;2023-07-29T12:02:32;1.38;;;1.27;;
10910;SDS011;5508;49.150;11.030;2023-07-29T12:05:36;2.08;;;1.55;;
10910;SDS011;5508;49.150;11.030;2023-07-29T12:08:36;2.35;;;1.73;;
10910;SDS011;5508;49.150;11.030;2023-07-29T12:11:37;1.92;;;1.65;;
10910;SDS011;5508;49.150;11.030;2023-07-29T12:14:38;2.10;;;1.58;;
10910;SDS011;5508;49.150;11.030;2023-07-29T12:17:41;2.55;;;1.48;;
10910;SDS011;5508;49.150;11.030;2023-07-29T12:20:43;2.60;;;1.30;;
10910;SDS011;5508;49.150;11.030;2023-07-29T12:23:43;1.40;;;1.30;;
10910;SDS011;5508;49.150;11.030;2023-07-29T12:26:44;1.58;;;1.48;;
10910;SDS011;5508;49.150;11.030;2023-07-29T12:29:46;1.83;;;1.60;;
10910;SDS011;5508;49.150;11.030;2023-07-29T12:32:48;4.07;;;1.70;;
10910;SDS011;5508;49.150;11.030;2023-07-29T12:35:50;3.97;;;1.60;;
10910;SDS011;5508;49.150;11.030;2023-07-29T12:38:50;1.80;;;1.55;;
10910;SDS011;5508;49.150;11.030;2023-07-29T12:41:51;2.13;;;1.80;;
10910;SDS011;5508;49.150;11.030;2023-07-29T12:44:56;5.63;;;1.70;;
10910;SDS011;5508;49.150;11.030;2023-07-29T12:47:57;1.90;;;1.50;;
10910;SDS011;5508;49.150;11.030;2023-07-29T12:50:57;2.40;;;1.13;;
10910;SDS011;5508;49.150;11.030;2023-07-29T12:53:58;3.10;;;1.20;;
10910;SDS011;5508;49.150;11.030;2023-07-29T12:56:58;1.90;;;1.20;;
10910;SDS011;5508;49.150;11.030;2023-07-29T12:59:59;2.65;;;1.30;;
10910;SDS011;5508;49.150;11.030;2023-07-29T13:03:00;1.30;;;1.20;;
10910;SDS011;5508;49.150;11.030;2023-07-29T13:06:00;1.20;;;1.02;;
10910;SDS011;5508;49.150;11.030;2023-07-29T13:09:01;1.00;;;0.90;;
10910;SDS011;5508;49.150;11.030;2023-07-29T13:12:01;1.38;;;1.00;;
10910;SDS011;5508;49.150;11.030;2023-07-29T13:15:02;1.00;;;0.95;;
10910;SDS011;5508;49.150;11.030;2023-07-29T13:18:03;1.55;;;1.05;;
10910;SDS011;5508;49.150;11.030;2023-07-29T13:21:04;1.77;;;1.38;;
10910;SDS011;5508;49.150;11.030;2023-07-29T13:24:04;1.02;;;0.93;;
10910;SDS011;5508;49.150;11.030;2023-07-29T13:27:05;2.75;;;1.38;;
10910;SDS011;5508;49.150;11.030;2023-07-29T13:30:06;1.15;;;1.05;;
10910;SDS011;5508;49.150;11.030;2023-07-29T13:33:08;1.67;;;1.13;;
10910;SDS011;5508;49.150;11.030;2023-07-29T13:36:08;1.30;;;1.20;;
10910;SDS011;5508;49.150;11.030;2023-07-29T13:39:09;1.38;;;1.08;;
10910;SDS011;5508;49.150;11.030;2023-07-29T13:42:10;1.50;;;1.10;;
10910;SDS011;5508;49.150;11.030;2023-07-29T13:45:10;1.42;;;1.33;;
10910;SDS011;5508;49.150;11.030;2023-07-29T13:48:11;2.45;;;1.25;;
10910;SDS011;5508;49.150;11.030;2023-07-29T13:51:11;1.30;;;1.20;;
10910;SDS011;5508;49.150;11.030;2023-07-29T13:54:12;1.35;;;1.20;;
10910;SDS011;5508;49.150;11.030;2023-07-29T13:57:12;1.00;;;0.80;;
10910;SDS011;5508;49.150;11.030;2023-07-29T14:00:13;2.58;;;1.10;;
10910;SDS011;5508;49.150;11.030;2023-07-29T14:03:14;1.40;;;1.10;;
10910;SDS011;5508;49.150;11.030;2023-07-29T14:06:14;2.55;;;1.20;;
10910;SDS011;5508;49.150;11.030;2023-07-29T14:09:15;2.25;;;1.13;;
10910;SDS011;5508;49.150;11.030;2023-07-29T14:12:16;1.80;;;0.95;;
10910;SDS011;5508;49.150;11.030;2023-07-29T14:15:17;1.27;;;1.17;;
10910;SDS011;5508;49.150;11.030;2023-07-29T14:18:18;1.40;;;1.20;;
10910;SDS011;5508;49.150;11.030;2023-07-29T14:21:19;1.80;;;1.13;;
10910;SDS011;5508;49.150;11.030;2023-07-29T14:24:20;1.52;;;1.10;;
10910;SDS011;5508;49.150;11.030;2023-07-29T14:27:22;1.52;;;1.40;;
10910;SDS011;5508;49.150;11.030;2023-07-29T14:30:23;2.13;;;1.20;;
10910;SDS011;5508;49.150;11.030;2023-07-29T14:33:24;1.83;;;1.35;;
10910;SDS011;5508;49.150;11.030;2023-07-29T14:36:25;1.38;;;1.27;;
10910;SDS011;5508;49.150;11.030;2023-07-29T14:39:26;5.25;;;1.30;;
10910;SDS011;5508;49.150;11.030;2023-07-29T14:42:26;1.33;;;1.17;;
10910;SDS011;5508;49.150;11.030;2023-07-29T14:45:27;1.98;;;1.42;;
10910;SDS011;5508;49.150;11.030;2023-07-29T14:48:28;2.60;;;1.58;;
10910;SDS011;5508;49.150;11.030;2023-07-29T14:51:29;1.65;;;1.42;;
10910;SDS011;5508;49.150;11.030;2023-07-29T14:54:30;1.90;;;1.40;;
10910;SDS011;5508;49.150;11.030;2023-07-29T14:57:30;1.67;;;1.35;;
10910;SDS011;5508;49.150;11.030;2023-07-29T15:00:31;2.22;;;1.38;;
10910;SDS011;5508;49.150;11.030;2023-07-29T15:03:33;1.30;;;1.20;;
10910;SDS011;5508;49.150;11.030;2023-07-29T15:06:33;1.65;;;1.30;;
10910;SDS011;5508;49.150;11.030;2023-07-29T15:09:34;1.42;;;1.10;;
10910;SDS011;5508;49.150;11.030;2023-07-29T15:12:35;1.88;;;1.35;;
10910;SDS011;5508;49.150;11.030;2023-07-29T15:15:35;1.75;;;1.42;;
10910;SDS011;5508;49.150;11.030;2023-07-29T15:18:36;1.50;;;1.23;;
10910;SDS011;5508;49.150;11.030;2023-07-29T15:21:37;1.63;;;1.52;;
10910;SDS011;5508;49.150;11.030;2023-07-29T15:24:38;3.78;;;1.52;;
10910;SDS011;5508;49.150;11.030;2023-07-29T15:27:40;1.52;;;1.40;;
10910;SDS011;5508;49.150;11.030;2023-07-29T15:30:40;1.70;;;1.60;;
10910;SDS011;5508;49.150;11.030;2023-07-29T15:33:41;2.30;;;1.33;;
10910;SDS011;5508;49.150;11.030;2023-07-29T15:36:41;2.22;;;1.48;;
10910;SDS011;5508;49.150;11.030;2023-07-29T15:39:42;2.08;;;1.38;;
10910;SDS011;5508;49.150;11.030;2023-07-29T15:42:42;3.38;;;1.30;;
10910;SDS011;5508;49.150;11.030;2023-07-29T15:45:43;1.40;;;1.30;;
10910;SDS011;5508;49.150;11.030;2023-07-29T15:48:44;1.63;;;1.30;;
10910;SDS011;5508;49.150;11.030;2023-07-29T15:51:45;1.60;;;1.27;;
10910;SDS011;5508;49.150;11.030;2023-07-29T15:54:46;1.88;;;1.35;;
10910;SDS011;5508;49.150;11.030;2023-07-29T15:57:46;2.50;;;1.50;;
10910;SDS011;5508;49.150;11.030;2023-07-29T16:00:47;1.90;;;1.30;;
10910;SDS011;5508;49.150;11.030;2023-07-29T16:03:48;2.42;;;1.60;;
10910;SDS011;5508;49.150;11.030;2023-07-29T16:06:48;1.42;;;1.33;;
10910;SDS011;5508;49.150;11.030;2023-07-29T16:09:49;2.83;;;1.60;;
10910;SDS011;5508;49.150;11.030;2023-07-29T16:12:49;1.45;;;1.33;;
10910;SDS011;5508;49.150;11.030;2023-07-29T16:15:50;1.80;;;1.33;;
10910;SDS011;5508;49.150;11.030;2023-07-29T16:18:51;1.77;;;1.50;;
10910;SDS011;5508;49.150;11.030;2023-07-29T16:21:51;1.38;;;1.27;;
10910;SDS011;5508;49.150;11.030;2023-07-29T16:24:52;4.32;;;1.80;;
10910;SDS011;5508;49.150;11.030;2023-07-29T16:27:53;2.35;;;1.55;;
10910;SDS011;5508;49.150;11.030;2023-07-29T16:30:56;2.55;;;1.27;;
10910;SDS011;5508;49.150;11.030;2023-07-29T16:33:56;1.58;;;1.40;;
10910;SDS011;5508;49.150;11.030;2023-07-29T16:36:57;1.42;;;1.33;;
10910;SDS011;5508;49.150;11.030;2023-07-29T16:39:57;1.85;;;1.40;;
10910;SDS011;5508;49.150;11.030;2023-07-29T16:42:59;1.70;;;1.38;;
10910;SDS011;5508;49.150;11.030;2023-07-29T16:46:00;2.75;;;1.52;;
10910;SDS011;5508;49.150;11.030;2023-07-29T16:49:00;1.60;;;1.40;;
10910;SDS011;5508;49.150;11.030;2023-07-29T16:52:01;1.58;;;1.38;;
10910;SDS011;5508;49.150;11.030;2023-07-29T16:55:01;1.77;;;1.50;;
10910;SDS011;5508;49.150;11.030;2023-07-29T16:58:02;2.58;;;1.40;;
10910;SDS011;5508;49.150;11.030;2023-07-29T17:01:03;2.60;;;1.60;;
10910;SDS011;5508;49.150;11.030;2023-07-29T17:04:03;3.15;;;1.60;;
10910;SDS011;5508;49.150;11.030;2023-07-29T17:07:04;1.80;;;1.70;;
10910;SDS011;5508;49.150;11.030;2023-07-29T17:10:05;1.65;;;1.50;;
10910;SDS011;5508;49.150;11.030;2023-07-29T17:13:05;2.05;;;1.88;;
10910;SDS011;5508;49.150;11.030;2023-07-29T17:16:06;1.73;;;1.58;;
10910;SDS011;5508;49.150;11.030;2023-07-29T17:19:08;2.38;;;1.60;;
10910;SDS011;5508;49.150;11.030;2023-07-29T17:22:09;5.40;;;1.88;;
10910;SDS011;5508;49.150;11.030;2023-07-29T17:25:10;2.08;;;1.65;;
10910;SDS011;5508;49.150;11.030;2023-07-29T17:28:10;1.95;;;1.75;;
10910;SDS011;5508;49.150;11.030;2023-07-29T17:31:11;2.05;;;1.65;;
10910;SDS011;5508;49.150;11.030;2023-07-29T17:34:12;3.80;;;1.90;;
10910;SDS011;5508;49.150;11.030;2023-07-29T17:37:13;2.25;;;1.70;;
10910;SDS011;5508;49.150;11.030;2023-07-29T17:40:13;2.03;;;1.83;;
10910;SDS011;5508;49.150;11.030;2023-07-29T17:43:14;2.22;;;1.67;;
10910;SDS011;5508;49.150;11.030;2023-07-29T17:46:14;3.03;;;1.63;;
10910;SDS011;5508;49.150;11.030;2023-07-29T17:49:18;1.95;;;1.75;;
10910;SDS011;5508;49.150;11.030;2023-07-29T17:52:18;1.65;;;1.55;;
10910;SDS011;5508;49.150;11.030;2023-07-29T17:55:19;2.63;;;1.73;;
10910;SDS011;5508;49.150;11.030;2023-07-29T17:58:19;2.22;;;1.60;;
10910;SDS011;5508;49.150;11.030;2023-07-29T18:01:20;2.00;;;1.70;;
10910;SDS011;5508;49.150;11.030;2023-07-29T18:04:21;1.90;;;1.75;;
10910;SDS011;5508;49.150;11.030;2023-07-29T18:07:21;2.30;;;1.58;;
10910;SDS011;5508;49.150;11.030;2023-07-29T18:10:22;1.67;;;1.58;;
10910;SDS011;5508;49.150;11.030;2023-07-29T18:13:24;2.10;;;1.90;;
10910;SDS011;5508;49.150;11.030;2023-07-29T18:16:24;1.92;;;1.63;;
10910;SDS011;5508;49.150;11.030;2023-07-29T18:19:25;3.70;;;1.63;;
10910;SDS011;5508;49.150;11.030;2023-07-29T18:22:29;1.80;;;1.50;;